sensor_id;sensor_type;location;lat;lon;timestamp;P1;durP1;ratioP1;P2;durP2;ratioP2
18520;SDS011;9390;51.244;6.982;2023-10-08T00:01:19;13.02;;;4.18;;
18520;SDS011;9390;51.244;6.982;2023-10-08T00:03:51;9.82;;;4.05;;
18520;SDS011;9390;51.244;6.982;2023-10-08T00:06:28;10.32;;;3.45;;
18520;SDS011;9390;51.244;6.982;2023-10-08T00:09:01;8.43;;;3.53;;
18520;SDS011;9390;51.244;6.982;2023-10-08T00:11:37;10.73;;;3.47;;
18520;SDS011;9390;51.244;6.982;2023-10-08T00:14:10;14.07;;;4.25;;
18520;SDS011;9390;51.244;6.982;2023-10-08T00:16:51;11.20;;;3.92;;
18520;SDS011;9390;51.244;6.982;2023-10-08T00:19:23;10.43;;;3.72;;
18520;SDS011;9390;51.244;6.982;2023-10-08T00:21:54;8.80;;;3.40;;
18520;SDS011;9390;51.244;6.982;2023-10-08T00:24:36;11.32;;;3.75;;
18520;SDS011;9390;51.244;6.982;2023-10-08T00:27:11;10.40;;;3.55;;
18520;SDS011;9390;51.244;6.982;2023-10-08T00:29:44;9.85;;;3.80;;
18520;SDS011;9390;51.244;6.982;2023-10-08T00:32:17;9.93;;;4.15;;
18520;SDS011;9390;51.244;6.982;2023-10-08T00:34:48;9.50;;;3.58;;
18520;SDS011;9390;51.244;6.982;2023-10-08T00:37:20;10.20;;;3.80;;
18520;SDS011;9390;51.244;6.982;2023-10-08T00:39:55;8.80;;;3.92;;
18520;SDS011;9390;51.244;6.982;2023-10-08T00:42:27;11.07;;;3.88;;
18520;SDS011;9390;51.244;6.982;2023-10-08T00:47:34;11.60;;;4.28;;
18520;SDS011;9390;51.244;6.982;2023-10-08T00:50:12;12.32;;;4.07;;
18520;SDS011;9390;51.244;6.982;2023-10-08T00:52:50;11.05;;;4.18;;
18520;SDS011;9390;51.244;6.982;2023-10-08T00:55:31;11.13;;;3.80;;
18520;SDS011;9390;51.244;6.982;2023-10-08T00:58:04;11.00;;;4.22;;
18520;SDS011;9390;51.244;6.982;2023-10-08T01:00:40;9.80;;;3.70;;
18520;SDS011;9390;51.244;6.982;2023-10-08T01:03:12;11.52;;;3.78;;
18520;SDS011;9390;51.244;6.982;2023-10-08T01:05:46;8.00;;;3.55;;
18520;SDS011;9390;51.244;6.982;2023-10-08T01:08:17;11.25;;;4.55;;
18520;SDS011;9390;51.244;6.982;2023-10-08T01:10:54;10.27;;;3.95;;
18520;SDS011;9390;51.244;6.982;2023-10-08T01:13:30;10.13;;;3.60;;
18520;SDS011;9390;51.244;6.982;2023-10-08T01:16:16;9.25;;;3.78;;
18520;SDS011;9390;51.244;6.982;2023-10-08T01:18:48;8.65;;;3.50;;
18520;SDS011;9390;51.244;6.982;2023-10-08T01:21:25;11.70;;;3.50;;
18520;SDS011;9390;51.244;6.982;2023-10-08T01:24:06;9.90;;;4.00;;
18520;SDS011;9390;51.244;6.982;2023-10-08T01:26:38;10.77;;;4.60;;
18520;SDS011;9390;51.244;6.982;2023-10-08T01:29:10;10.73;;;4.15;;
18520;SDS011;9390;51.244;6.982;2023-10-08T01:31:49;11.43;;;3.80;;
18520;SDS011;9390;51.244;6.982;2023-10-08T01:34:23;8.27;;;3.60;;
18520;SDS011;9390;51.244;6.982;2023-10-08T01:36:58;11.73;;;3.55;;
18520;SDS011;9390;51.244;6.982;2023-10-08T01:39:37;9.43;;;3.58;;
18520;SDS011;9390;51.244;6.982;2023-10-08T01:42:10;14.60;;;3.72;;
18520;SDS011;9390;51.244;6.982;2023-10-08T01:44:46;9.40;;;4.05;;
18520;SDS011;9390;51.244;6.982;2023-10-08T01:47:18;10.57;;;3.92;;
18520;SDS011;9390;51.244;6.982;2023-10-08T01:49:50;12.23;;;4.20;;
18520;SDS011;9390;51.244;6.982;2023-10-08T01:52:28;13.65;;;4.22;;
18520;SDS011;9390;51.244;6.982;2023-10-08T01:55:01;15.00;;;3.90;;
18520;SDS011;9390;51.244;6.982;2023-10-08T01:57:36;14.18;;;4.32;;
18520;SDS011;9390;51.244;6.982;2023-10-08T02:00:08;12.73;;;3.95;;
18520;SDS011;9390;51.244;6.982;2023-10-08T02:02:41;11.32;;;4.07;;
18520;SDS011;9390;51.244;6.982;2023-10-08T02:05:12;15.82;;;5.22;;
18520;SDS011;9390;51.244;6.982;2023-10-08T02:07:45;11.65;;;4.20;;
18520;SDS011;9390;51.244;6.982;2023-10-08T02:10:18;11.93;;;3.95;;
18520;SDS011;9390;51.244;6.982;2023-10-08T02:12:49;10.18;;;3.83;;
18520;SDS011;9390;51.244;6.982;2023-10-08T02:15:20;9.77;;;3.97;;
18520;SDS011;9390;51.244;6.982;2023-10-08T02:17:52;10.07;;;3.88;;
18520;SDS011;9390;51.244;6.982;2023-10-08T02:20:24;11.73;;;4.80;;
18520;SDS011;9390;51.244;6.982;2023-10-08T02:22:57;9.00;;;3.70;;
18520;SDS011;9390;51.244;6.982;2023-10-08T02:25:31;11.98;;;4.30;;
18520;SDS011;9390;51.244;6.982;2023-10-08T02:28:05;13.02;;;3.92;;
18520;SDS011;9390;51.244;6.982;2023-10-08T02:30:38;11.00;;;4.32;;
18520;SDS011;9390;51.244;6.982;2023-10-08T02:33:10;11.90;;;4.40;;
18520;SDS011;9390;51.244;6.982;2023-10-08T02:35:46;14.38;;;4.53;;
18520;SDS011;9390;51.244;6.982;2023-10-08T02:38:19;9.90;;;4.05;;
18520;SDS011;9390;51.244;6.982;2023-10-08T02:40:52;12.98;;;3.97;;
18520;SDS011;9390;51.244;6.982;2023-10-08T02:43:26;12.02;;;4.43;;
18520;SDS011;9390;51.244;6.982;2023-10-08T02:46:00;10.23;;;4.10;;
18520;SDS011;9390;51.244;6.982;2023-10-08T02:48:31;10.05;;;4.20;;
18520;SDS011;9390;51.244;6.982;2023-10-08T02:51:04;13.00;;;4.63;;
18520;SDS011;9390;51.244;6.982;2023-10-08T02:53:44;13.00;;;4.45;;
18520;SDS011;9390;51.244;6.982;2023-10-08T02:56:18;10.80;;;4.50;;
18520;SDS011;9390;51.244;6.982;2023-10-08T02:58:49;15.00;;;4.75;;
18520;SDS011;9390;51.244;6.982;2023-10-08T03:01:21;12.55;;;4.53;;
18520;SDS011;9390;51.244;6.982;2023-10-08T03:03:52;12.82;;;4.35;;
18520;SDS011;9390;51.244;6.982;2023-10-08T03:06:33;12.07;;;4.68;;
18520;SDS011;9390;51.244;6.982;2023-10-08T03:09:05;12.43;;;3.88;;
18520;SDS011;9390;51.244;6.982;2023-10-08T03:11:40;11.85;;;4.38;;
18520;SDS011;9390;51.244;6.982;2023-10-08T03:14:17;13.63;;;4.68;;
18520;SDS011;9390;51.244;6.982;2023-10-08T03:16:53;12.57;;;4.50;;
18520;SDS011;9390;51.244;6.982;2023-10-08T03:19:37;10.55;;;4.63;;
18520;SDS011;9390;51.244;6.982;2023-10-08T03:22:08;12.57;;;4.88;;
18520;SDS011;9390;51.244;6.982;2023-10-08T03:24:42;10.70;;;4.30;;
18520;SDS011;9390;51.244;6.982;2023-10-08T03:27:15;12.77;;;4.28;;
18520;SDS011;9390;51.244;6.982;2023-10-08T03:29:50;12.85;;;4.85;;
18520;SDS011;9390;51.244;6.982;2023-10-08T03:32:24;14.70;;;5.15;;
18520;SDS011;9390;51.244;6.982;2023-10-08T03:34:56;9.85;;;4.07;;
18520;SDS011;9390;51.244;6.982;2023-10-08T03:37:30;14.05;;;4.38;;
18520;SDS011;9390;51.244;6.982;2023-10-08T03:40:11;11.65;;;4.35;;
18520;SDS011;9390;51.244;6.982;2023-10-08T03:42:56;15.00;;;4.40;;
18520;SDS011;9390;51.244;6.982;2023-10-08T03:45:28;9.35;;;4.43;;
18520;SDS011;9390;51.244;6.982;2023-10-08T03:48:17;11.25;;;4.10;;
18520;SDS011;9390;51.244;6.982;2023-10-08T03:50:48;11.57;;;4.43;;
18520;SDS011;9390;51.244;6.982;2023-10-08T03:53:26;11.48;;;4.68;;
18520;SDS011;9390;51.244;6.982;2023-10-08T03:56:01;14.85;;;4.50;;
18520;SDS011;9390;51.244;6.982;2023-10-08T03:58:37;9.85;;;4.47;;
18520;SDS011;9390;51.244;6.982;2023-10-08T04:01:16;12.77;;;4.75;;
18520;SDS011;9390;51.244;6.982;2023-10-08T04:03:49;10.38;;;4.00;;
18520;SDS011;9390;51.244;6.982;2023-10-08T04:06:28;14.25;;;4.80;;
18520;SDS011;9390;51.244;6.982;2023-10-08T04:09:01;12.85;;;4.32;;
18520;SDS011;9390;51.244;6.982;2023-10-08T04:11:46;9.25;;;4.07;;
18520;SDS011;9390;51.244;6.982;2023-10-08T04:14:25;12.27;;;4.30;;
18520;SDS011;9390;51.244;6.982;2023-10-08T04:16:58;13.65;;;5.07;;
18520;SDS011;9390;51.244;6.982;2023-10-08T04:19:29;13.38;;;4.53;;
18520;SDS011;9390;51.244;6.982;2023-10-08T04:22:01;12.20;;;4.07;;
18520;SDS011;9390;51.244;6.982;2023-10-08T04:24:33;9.57;;;4.30;;
18520;SDS011;9390;51.244;6.982;2023-10-08T04:27:05;11.98;;;4.40;;
18520;SDS011;9390;51.244;6.982;2023-10-08T04:29:41;13.02;;;4.22;;
18520;SDS011;9390;51.244;6.982;2023-10-08T04:32:12;17.23;;;4.70;;
18520;SDS011;9390;51.244;6.982;2023-10-08T04:34:52;11.95;;;4.45;;
18520;SDS011;9390;51.244;6.982;2023-10-08T04:37:24;10.40;;;4.35;;
18520;SDS011;9390;51.244;6.982;2023-10-08T04:40:02;14.95;;;5.13;;
18520;SDS011;9390;51.244;6.982;2023-10-08T04:42:45;13.52;;;4.93;;
18520;SDS011;9390;51.244;6.982;2023-10-08T04:45:19;12.88;;;4.13;;
18520;SDS011;9390;51.244;6.982;2023-10-08T04:47:56;11.15;;;4.03;;
18520;SDS011;9390;51.244;6.982;2023-10-08T04:50:28;11.35;;;4.80;;
18520;SDS011;9390;51.244;6.982;2023-10-08T04:53:01;11.45;;;4.63;;
18520;SDS011;9390;51.244;6.982;2023-10-08T04:55:37;14.38;;;4.93;;
18520;SDS011;9390;51.244;6.982;2023-10-08T04:58:18;13.02;;;4.07;;
18520;SDS011;9390;51.244;6.982;2023-10-08T05:01:01;14.00;;;4.38;;
18520;SDS011;9390;51.244;6.982;2023-10-08T05:03:47;11.30;;;4.03;;
18520;SDS011;9390;51.244;6.982;2023-10-08T05:06:37;14.57;;;5.22;;
18520;SDS011;9390;51.244;6.982;2023-10-08T05:09:30;11.13;;;4.47;;
18520;SDS011;9390;51.244;6.982;2023-10-08T05:12:17;11.55;;;4.40;;
18520;SDS011;9390;51.244;6.982;2023-10-08T05:15:05;15.77;;;4.05;;
18520;SDS011;9390;51.244;6.982;2023-10-08T05:18:04;11.43;;;4.53;;
18520;SDS011;9390;51.244;6.982;2023-10-08T05:20:53;12.98;;;4.05;;
18520;SDS011;9390;51.244;6.982;2023-10-08T05:23:29;14.90;;;4.13;;
18520;SDS011;9390;51.244;6.982;2023-10-08T05:26:23;11.85;;;4.38;;
18520;SDS011;9390;51.244;6.982;2023-10-08T05:29:11;12.63;;;4.68;;
18520;SDS011;9390;51.244;6.982;2023-10-08T05:32:15;13.80;;;4.65;;
18520;SDS011;9390;51.244;6.982;2023-10-08T05:35:15;10.35;;;4.32;;
18520;SDS011;9390;51.244;6.982;2023-10-08T05:38:08;15.48;;;4.13;;
18520;SDS011;9390;51.244;6.982;2023-10-08T05:40:46;12.80;;;4.05;;
18520;SDS011;9390;51.244;6.982;2023-10-08T05:43:36;12.98;;;4.00;;
18520;SDS011;9390;51.244;6.982;2023-10-08T05:46:25;16.33;;;4.38;;
18520;SDS011;9390;51.244;6.982;2023-10-08T05:49:14;11.38;;;3.75;;
18520;SDS011;9390;51.244;6.982;2023-10-08T05:52:13;10.13;;;3.85;;
18520;SDS011;9390;51.244;6.982;2023-10-08T05:54:58;12.20;;;4.82;;
18520;SDS011;9390;51.244;6.982;2023-10-08T05:57:53;13.82;;;5.05;;
18520;SDS011;9390;51.244;6.982;2023-10-08T06:00:35;13.30;;;4.70;;
18520;SDS011;9390;51.244;6.982;2023-10-08T06:03:46;10.05;;;4.20;;
18520;SDS011;9390;51.244;6.982;2023-10-08T06:06:30;10.63;;;4.47;;
18520;SDS011;9390;51.244;6.982;2023-10-08T06:09:07;10.65;;;4.82;;
18520;SDS011;9390;51.244;6.982;2023-10-08T06:11:52;12.88;;;4.18;;
18520;SDS011;9390;51.244;6.982;2023-10-08T06:14:49;13.18;;;4.38;;
18520;SDS011;9390;51.244;6.982;2023-10-08T06:17:36;12.27;;;4.35;;
18520;SDS011;9390;51.244;6.982;2023-10-08T06:20:27;11.45;;;4.18;;
18520;SDS011;9390;51.244;6.982;2023-10-08T06:22:58;14.57;;;4.85;;
18520;SDS011;9390;51.244;6.982;2023-10-08T06:25:37;13.13;;;3.90;;
18520;SDS011;9390;51.244;6.982;2023-10-08T06:28:15;13.95;;;3.60;;
18520;SDS011;9390;51.244;6.982;2023-10-08T06:30:50;18.80;;;4.43;;
18520;SDS011;9390;51.244;6.982;2023-10-08T06:33:26;9.35;;;4.10;;
18520;SDS011;9390;51.244;6.982;2023-10-08T06:36:02;15.40;;;4.90;;
18520;SDS011;9390;51.244;6.982;2023-10-08T06:38:44;10.25;;;4.03;;
18520;SDS011;9390;51.244;6.982;2023-10-08T06:41:18;16.33;;;4.38;;
18520;SDS011;9390;51.244;6.982;2023-10-08T06:43:50;14.57;;;4.57;;
18520;SDS011;9390;51.244;6.982;2023-10-08T06:46:24;12.55;;;4.10;;
18520;SDS011;9390;51.244;6.982;2023-10-08T06:48:59;13.77;;;4.70;;
18520;SDS011;9390;51.244;6.982;2023-10-08T06:51:31;10.50;;;4.00;;
18520;SDS011;9390;51.244;6.982;2023-10-08T06:54:03;10.82;;;3.90;;
18520;SDS011;9390;51.244;6.982;2023-10-08T06:56:40;10.85;;;4.13;;
18520;SDS011;9390;51.244;6.982;2023-10-08T06:59:16;12.38;;;4.00;;
18520;SDS011;9390;51.244;6.982;2023-10-08T07:01:47;12.35;;;4.03;;
18520;SDS011;9390;51.244;6.982;2023-10-08T07:04:21;11.75;;;4.05;;
18520;SDS011;9390;51.244;6.982;2023-10-08T07:06:55;13.68;;;4.07;;
18520;SDS011;9390;51.244;6.982;2023-10-08T07:09:26;13.25;;;4.63;;
18520;SDS011;9390;51.244;6.982;2023-10-08T07:12:00;10.98;;;4.30;;
18520;SDS011;9390;51.244;6.982;2023-10-08T07:14:35;18.15;;;4.65;;
18520;SDS011;9390;51.244;6.982;2023-10-08T07:17:06;15.95;;;4.45;;
18520;SDS011;9390;51.244;6.982;2023-10-08T07:19:38;10.30;;;4.28;;
18520;SDS011;9390;51.244;6.982;2023-10-08T07:22:12;15.75;;;4.30;;
18520;SDS011;9390;51.244;6.982;2023-10-08T07:24:52;10.98;;;4.50;;
18520;SDS011;9390;51.244;6.982;2023-10-08T07:27:25;11.85;;;4.18;;
18520;SDS011;9390;51.244;6.982;2023-10-08T07:30:02;13.90;;;4.95;;
18520;SDS011;9390;51.244;6.982;2023-10-08T07:32:40;13.35;;;4.13;;
18520;SDS011;9390;51.244;6.982;2023-10-08T07:35:11;12.63;;;4.30;;
18520;SDS011;9390;51.244;6.982;2023-10-08T07:37:54;14.00;;;3.97;;
18520;SDS011;9390;51.244;6.982;2023-10-08T07:40:27;14.43;;;4.50;;
18520;SDS011;9390;51.244;6.982;2023-10-08T07:43:01;11.77;;;4.00;;
18520;SDS011;9390;51.244;6.982;2023-10-08T07:45:38;12.65;;;4.80;;
18520;SDS011;9390;51.244;6.982;2023-10-08T07:48:09;14.25;;;4.40;;
18520;SDS011;9390;51.244;6.982;2023-10-08T07:50:41;12.52;;;4.63;;
18520;SDS011;9390;51.244;6.982;2023-10-08T07:53:16;15.95;;;4.35;;
18520;SDS011;9390;51.244;6.982;2023-10-08T07:55:50;16.30;;;4.72;;
18520;SDS011;9390;51.244;6.982;2023-10-08T07:58:22;11.32;;;4.63;;
18520;SDS011;9390;51.244;6.982;2023-10-08T08:00:53;14.40;;;4.55;;
18520;SDS011;9390;51.244;6.982;2023-10-08T08:03:25;12.68;;;4.28;;
18520;SDS011;9390;51.244;6.982;2023-10-08T08:05:56;12.60;;;4.82;;
18520;SDS011;9390;51.244;6.982;2023-10-08T08:08:30;11.80;;;4.10;;
18520;SDS011;9390;51.244;6.982;2023-10-08T08:11:01;14.43;;;4.57;;
18520;SDS011;9390;51.244;6.982;2023-10-08T08:13:36;14.75;;;4.85;;
18520;SDS011;9390;51.244;6.982;2023-10-08T08:16:08;11.18;;;4.47;;
18520;SDS011;9390;51.244;6.982;2023-10-08T08:18:47;17.70;;;4.28;;
18520;SDS011;9390;51.244;6.982;2023-10-08T08:21:19;13.25;;;5.00;;
18520;SDS011;9390;51.244;6.982;2023-10-08T08:23:54;16.52;;;4.97;;
18520;SDS011;9390;51.244;6.982;2023-10-08T08:26:34;16.67;;;5.40;;
18520;SDS011;9390;51.244;6.982;2023-10-08T08:29:14;16.45;;;5.68;;
18520;SDS011;9390;51.244;6.982;2023-10-08T08:31:46;13.30;;;5.20;;
18520;SDS011;9390;51.244;6.982;2023-10-08T08:34:17;16.70;;;4.85;;
18520;SDS011;9390;51.244;6.982;2023-10-08T08:36:49;13.93;;;4.83;;
18520;SDS011;9390;51.244;6.982;2023-10-08T08:39:22;15.73;;;5.63;;
18520;SDS011;9390;51.244;6.982;2023-10-08T08:42:03;19.30;;;6.45;;
18520;SDS011;9390;51.244;6.982;2023-10-08T08:47:09;24.15;;;6.80;;
18520;SDS011;9390;51.244;6.982;2023-10-08T08:49:44;16.15;;;6.63;;
18520;SDS011;9390;51.244;6.982;2023-10-08T08:52:16;20.45;;;6.18;;
18520;SDS011;9390;51.244;6.982;2023-10-08T08:54:48;21.85;;;7.22;;
18520;SDS011;9390;51.244;6.982;2023-10-08T08:57:21;21.83;;;6.45;;
18520;SDS011;9390;51.244;6.982;2023-10-08T08:59:53;19.27;;;7.05;;
18520;SDS011;9390;51.244;6.982;2023-10-08T09:02:26;25.75;;;6.72;;
18520;SDS011;9390;51.244;6.982;2023-10-08T09:04:57;19.27;;;6.45;;
18520;SDS011;9390;51.244;6.982;2023-10-08T09:07:51;24.55;;;7.10;;
18520;SDS011;9390;51.244;6.982;2023-10-08T09:10:26;26.08;;;7.97;;
18520;SDS011;9390;51.244;6.982;2023-10-08T09:12:59;26.13;;;7.25;;
18520;SDS011;9390;51.244;6.982;2023-10-08T09:15:30;21.17;;;7.03;;
18520;SDS011;9390;51.244;6.982;2023-10-08T09:18:03;21.05;;;7.13;;
18520;SDS011;9390;51.244;6.982;2023-10-08T09:20:36;18.05;;;7.20;;
18520;SDS011;9390;51.244;6.982;2023-10-08T09:23:13;21.65;;;7.28;;
18520;SDS011;9390;51.244;6.982;2023-10-08T09:25:48;21.77;;;7.50;;
18520;SDS011;9390;51.244;6.982;2023-10-08T09:28:21;21.83;;;7.03;;
18520;SDS011;9390;51.244;6.982;2023-10-08T09:30:55;23.98;;;7.50;;
18520;SDS011;9390;51.244;6.982;2023-10-08T09:33:28;26.88;;;8.63;;
18520;SDS011;9390;51.244;6.982;2023-10-08T09:36:00;28.75;;;7.63;;
18520;SDS011;9390;51.244;6.982;2023-10-08T09:38:34;24.65;;;8.63;;
18520;SDS011;9390;51.244;6.982;2023-10-08T09:41:08;25.65;;;8.60;;
18520;SDS011;9390;51.244;6.982;2023-10-08T09:43:39;28.65;;;9.25;;
18520;SDS011;9390;51.244;6.982;2023-10-08T09:46:13;31.43;;;9.03;;
18520;SDS011;9390;51.244;6.982;2023-10-08T09:48:48;35.55;;;10.57;;
18520;SDS011;9390;51.244;6.982;2023-10-08T09:51:22;33.75;;;10.57;;
18520;SDS011;9390;51.244;6.982;2023-10-08T09:53:57;29.33;;;9.73;;
18520;SDS011;9390;51.244;6.982;2023-10-08T09:56:35;45.13;;;12.55;;
18520;SDS011;9390;51.244;6.982;2023-10-08T09:59:09;43.97;;;12.65;;
18520;SDS011;9390;51.244;6.982;2023-10-08T10:01:41;56.08;;;15.52;;
18520;SDS011;9390;51.244;6.982;2023-10-08T10:06:54;56.55;;;17.88;;
18520;SDS011;9390;51.244;6.982;2023-10-08T10:09:28;55.85;;;17.58;;
18520;SDS011;9390;51.244;6.982;2023-10-08T10:12:00;44.78;;;17.17;;
18520;SDS011;9390;51.244;6.982;2023-10-08T10:14:40;54.20;;;16.65;;
18520;SDS011;9390;51.244;6.982;2023-10-08T10:17:13;53.90;;;17.63;;
18520;SDS011;9390;51.244;6.982;2023-10-08T10:19:49;50.90;;;15.57;;
18520;SDS011;9390;51.244;6.982;2023-10-08T10:22:28;49.05;;;15.90;;
18520;SDS011;9390;51.244;6.982;2023-10-08T10:25:00;45.75;;;16.67;;
18520;SDS011;9390;51.244;6.982;2023-10-08T10:27:35;50.15;;;16.50;;
18520;SDS011;9390;51.244;6.982;2023-10-08T10:30:07;55.92;;;18.92;;
18520;SDS011;9390;51.244;6.982;2023-10-08T10:32:39;59.75;;;18.25;;
18520;SDS011;9390;51.244;6.982;2023-10-08T10:35:16;48.72;;;18.00;;
18520;SDS011;9390;51.244;6.982;2023-10-08T10:37:49;57.10;;;18.00;;
18520;SDS011;9390;51.244;6.982;2023-10-08T10:40:22;46.70;;;15.43;;
18520;SDS011;9390;51.244;6.982;2023-10-08T10:43:02;46.17;;;15.57;;
18520;SDS011;9390;51.244;6.982;2023-10-08T10:45:36;54.63;;;17.85;;
18520;SDS011;9390;51.244;6.982;2023-10-08T10:48:10;46.47;;;17.13;;
18520;SDS011;9390;51.244;6.982;2023-10-08T10:53:18;48.95;;;15.80;;
18520;SDS011;9390;51.244;6.982;2023-10-08T10:55:50;44.40;;;17.50;;
18520;SDS011;9390;51.244;6.982;2023-10-08T10:58:30;46.75;;;17.08;;
18520;SDS011;9390;51.244;6.982;2023-10-08T11:01:09;51.10;;;16.60;;
18520;SDS011;9390;51.244;6.982;2023-10-08T11:03:53;58.10;;;17.70;;
18520;SDS011;9390;51.244;6.982;2023-10-08T11:06:27;45.80;;;17.88;;
18520;SDS011;9390;51.244;6.982;2023-10-08T11:08:59;42.83;;;15.93;;
18520;SDS011;9390;51.244;6.982;2023-10-08T11:11:30;42.47;;;16.83;;
18520;SDS011;9390;51.244;6.982;2023-10-08T11:14:03;42.15;;;17.45;;
18520;SDS011;9390;51.244;6.982;2023-10-08T11:16:34;40.53;;;17.60;;
18520;SDS011;9390;51.244;6.982;2023-10-08T11:19:08;51.22;;;19.27;;
18520;SDS011;9390;51.244;6.982;2023-10-08T11:21:48;54.13;;;21.53;;
18520;SDS011;9390;51.244;6.982;2023-10-08T11:24:29;56.65;;;20.42;;
18520;SDS011;9390;51.244;6.982;2023-10-08T11:29:48;36.03;;;15.77;;
18520;SDS011;9390;51.244;6.982;2023-10-08T11:32:26;27.42;;;13.68;;
18520;SDS011;9390;51.244;6.982;2023-10-08T11:34:59;25.98;;;12.77;;
18520;SDS011;9390;51.244;6.982;2023-10-08T11:37:31;37.88;;;14.18;;
18520;SDS011;9390;51.244;6.982;2023-10-08T11:40:04;27.58;;;13.93;;
18520;SDS011;9390;51.244;6.982;2023-10-08T11:42:43;25.60;;;12.15;;
18520;SDS011;9390;51.244;6.982;2023-10-08T11:45:16;31.40;;;12.38;;
18520;SDS011;9390;51.244;6.982;2023-10-08T11:47:54;30.88;;;12.57;;
18520;SDS011;9390;51.244;6.982;2023-10-08T11:50:33;28.25;;;13.18;;
18520;SDS011;9390;51.244;6.982;2023-10-08T11:53:05;27.42;;;11.43;;
18520;SDS011;9390;51.244;6.982;2023-10-08T11:55:36;23.23;;;9.85;;
18520;SDS011;9390;51.244;6.982;2023-10-08T11:58:09;32.05;;;11.52;;
18520;SDS011;9390;51.244;6.982;2023-10-08T12:00:48;26.25;;;10.30;;
18520;SDS011;9390;51.244;6.982;2023-10-08T12:03:22;27.77;;;10.05;;
18520;SDS011;9390;51.244;6.982;2023-10-08T12:05:56;30.55;;;10.27;;
18520;SDS011;9390;51.244;6.982;2023-10-08T12:08:29;30.77;;;10.32;;
18520;SDS011;9390;51.244;6.982;2023-10-08T12:11:00;29.02;;;10.63;;
18520;SDS011;9390;51.244;6.982;2023-10-08T12:17:17;26.80;;;10.68;;
18520;SDS011;9390;51.244;6.982;2023-10-08T12:19:48;31.70;;;12.68;;
18520;SDS011;9390;51.244;6.982;2023-10-08T12:22:21;31.40;;;12.35;;
18520;SDS011;9390;51.244;6.982;2023-10-08T12:24:53;37.08;;;12.43;;
18520;SDS011;9390;51.244;6.982;2023-10-08T12:27:24;36.38;;;12.55;;
18520;SDS011;9390;51.244;6.982;2023-10-08T12:29:55;32.05;;;12.75;;
18520;SDS011;9390;51.244;6.982;2023-10-08T12:32:30;31.45;;;12.68;;
18520;SDS011;9390;51.244;6.982;2023-10-08T12:35:01;39.13;;;13.77;;
18520;SDS011;9390;51.244;6.982;2023-10-08T12:41:00;45.88;;;14.90;;
18520;SDS011;9390;51.244;6.982;2023-10-08T12:43:38;37.03;;;15.65;;
18520;SDS011;9390;51.244;6.982;2023-10-08T12:46:12;44.92;;;15.40;;
18520;SDS011;9390;51.244;6.982;2023-10-08T12:48:50;36.05;;;15.20;;
18520;SDS011;9390;51.244;6.982;2023-10-08T12:51:24;33.90;;;14.40;;
18520;SDS011;9390;51.244;6.982;2023-10-08T12:53:56;41.77;;;15.00;;
18520;SDS011;9390;51.244;6.982;2023-10-08T12:56:34;39.78;;;14.48;;
18520;SDS011;9390;51.244;6.982;2023-10-08T14:34:06;38.60;;;12.43;;
18520;SDS011;9390;51.244;6.982;2023-10-08T14:36:49;38.40;;;13.85;;
18520;SDS011;9390;51.244;6.982;2023-10-08T14:39:38;32.53;;;12.60;;
18520;SDS011;9390;51.244;6.982;2023-10-08T14:42:27;32.40;;;12.68;;
18520;SDS011;9390;51.244;6.982;2023-10-08T14:45:16;32.50;;;11.13;;
18520;SDS011;9390;51.244;6.982;2023-10-08T14:47:49;36.22;;;13.48;;
18520;SDS011;9390;51.244;6.982;2023-10-08T14:50:21;35.10;;;13.13;;
18520;SDS011;9390;51.244;6.982;2023-10-08T14:52:53;40.85;;;12.15;;
18520;SDS011;9390;51.244;6.982;2023-10-08T14:55:25;30.23;;;11.52;;
18520;SDS011;9390;51.244;6.982;2023-10-08T14:57:57;39.08;;;13.90;;
18520;SDS011;9390;51.244;6.982;2023-10-08T15:00:31;34.38;;;10.88;;
18520;SDS011;9390;51.244;6.982;2023-10-08T15:03:05;35.72;;;12.80;;
18520;SDS011;9390;51.244;6.982;2023-10-08T15:05:39;33.15;;;11.85;;
18520;SDS011;9390;51.244;6.982;2023-10-08T15:08:11;28.33;;;11.55;;
18520;SDS011;9390;51.244;6.982;2023-10-08T15:10:44;34.88;;;12.82;;
18520;SDS011;9390;51.244;6.982;2023-10-08T15:13:17;35.47;;;11.63;;
18520;SDS011;9390;51.244;6.982;2023-10-08T15:15:48;31.17;;;11.07;;
18520;SDS011;9390;51.244;6.982;2023-10-08T15:18:20;27.67;;;11.32;;
18520;SDS011;9390;51.244;6.982;2023-10-08T15:20:54;26.60;;;11.02;;
18520;SDS011;9390;51.244;6.982;2023-10-08T15:43:25;28.40;;;10.18;;
18520;SDS011;9390;51.244;6.982;2023-10-08T15:45:57;30.00;;;11.48;;
18520;SDS011;9390;51.244;6.982;2023-10-08T15:48:28;29.23;;;11.88;;
18520;SDS011;9390;51.244;6.982;2023-10-08T15:51:00;33.75;;;11.98;;
18520;SDS011;9390;51.244;6.982;2023-10-08T15:53:31;36.20;;;12.85;;
18520;SDS011;9390;51.244;6.982;2023-10-08T15:56:03;28.35;;;11.95;;
18520;SDS011;9390;51.244;6.982;2023-10-08T15:58:35;31.88;;;12.90;;
18520;SDS011;9390;51.244;6.982;2023-10-08T16:01:07;36.97;;;13.60;;
18520;SDS011;9390;51.244;6.982;2023-10-08T16:03:38;28.27;;;11.77;;
18520;SDS011;9390;51.244;6.982;2023-10-08T16:06:09;30.55;;;11.50;;
18520;SDS011;9390;51.244;6.982;2023-10-08T16:08:41;28.92;;;12.13;;
18520;SDS011;9390;51.244;6.982;2023-10-08T16:11:12;34.83;;;12.23;;
18520;SDS011;9390;51.244;6.982;2023-10-08T16:13:45;35.83;;;13.07;;
18520;SDS011;9390;51.244;6.982;2023-10-08T16:16:17;35.28;;;12.90;;
18520;SDS011;9390;51.244;6.982;2023-10-08T16:18:49;30.67;;;12.38;;
18520;SDS011;9390;51.244;6.982;2023-10-08T16:21:21;35.40;;;12.87;;
18520;SDS011;9390;51.244;6.982;2023-10-08T16:23:52;28.25;;;11.88;;
18520;SDS011;9390;51.244;6.982;2023-10-08T16:26:27;26.42;;;11.93;;
18520;SDS011;9390;51.244;6.982;2023-10-08T16:29:00;34.80;;;12.25;;
18520;SDS011;9390;51.244;6.982;2023-10-08T16:31:32;25.90;;;10.07;;
18520;SDS011;9390;51.244;6.982;2023-10-08T16:34:10;26.77;;;11.00;;
18520;SDS011;9390;51.244;6.982;2023-10-08T16:36:42;23.10;;;11.10;;
18520;SDS011;9390;51.244;6.982;2023-10-08T16:39:15;26.50;;;12.02;;
18520;SDS011;9390;51.244;6.982;2023-10-08T16:41:48;28.17;;;12.18;;
18520;SDS011;9390;51.244;6.982;2023-10-08T16:44:21;28.95;;;12.27;;
18520;SDS011;9390;51.244;6.982;2023-10-08T16:46:52;34.63;;;11.82;;
18520;SDS011;9390;51.244;6.982;2023-10-08T16:49:23;29.17;;;12.75;;
18520;SDS011;9390;51.244;6.982;2023-10-08T16:51:58;31.48;;;12.48;;
18520;SDS011;9390;51.244;6.982;2023-10-08T16:54:30;32.67;;;12.02;;
18520;SDS011;9390;51.244;6.982;2023-10-08T16:57:01;30.52;;;12.65;;
18520;SDS011;9390;51.244;6.982;2023-10-08T16:59:36;26.70;;;11.90;;
18520;SDS011;9390;51.244;6.982;2023-10-08T17:02:07;32.50;;;12.32;;
18520;SDS011;9390;51.244;6.982;2023-10-08T17:04:39;33.33;;;12.02;;
18520;SDS011;9390;51.244;6.982;2023-10-08T17:07:10;29.52;;;11.52;;
18520;SDS011;9390;51.244;6.982;2023-10-08T17:09:41;28.55;;;12.18;;
18520;SDS011;9390;51.244;6.982;2023-10-08T17:12:13;28.27;;;11.05;;
18520;SDS011;9390;51.244;6.982;2023-10-08T17:14:49;26.30;;;11.60;;
18520;SDS011;9390;51.244;6.982;2023-10-08T17:17:21;24.67;;;10.77;;
18520;SDS011;9390;51.244;6.982;2023-10-08T17:19:52;24.05;;;10.98;;
18520;SDS011;9390;51.244;6.982;2023-10-08T17:22:23;28.55;;;11.45;;
18520;SDS011;9390;51.244;6.982;2023-10-08T17:24:55;29.30;;;11.05;;
18520;SDS011;9390;51.244;6.982;2023-10-08T17:27:27;26.00;;;11.18;;
18520;SDS011;9390;51.244;6.982;2023-10-08T17:30:00;28.42;;;11.40;;
18520;SDS011;9390;51.244;6.982;2023-10-08T17:32:31;25.88;;;11.07;;
18520;SDS011;9390;51.244;6.982;2023-10-08T17:35:05;29.88;;;12.48;;
18520;SDS011;9390;51.244;6.982;2023-10-08T17:37:39;26.58;;;12.27;;
18520;SDS011;9390;51.244;6.982;2023-10-08T17:40:10;26.25;;;11.68;;
18520;SDS011;9390;51.244;6.982;2023-10-08T17:42:42;38.45;;;13.10;;
18520;SDS011;9390;51.244;6.982;2023-10-08T17:45:15;30.58;;;12.93;;
18520;SDS011;9390;51.244;6.982;2023-10-08T17:47:52;32.50;;;13.00;;